sensor_id;sensor_type;location;lat;lon;timestamp;temperature;humidity
40077;DHT22;25777;47.824;18.982;2023-01-15T00:01:33;3.20;99.90
40077;DHT22;25777;47.824;18.982;2023-01-15T00:04:00;3.20;99.90
40077;DHT22;25777;47.824;18.982;2023-01-15T00:06:28;3.20;99.90
40077;DHT22;25777;47.824;18.982;2023-01-15T00:08:55;3.20;99.90
40077;DHT22;25777;47.824;18.982;2023-01-15T00:11:22;3.20;99.90
40077;DHT22;25777;47.824;18.982;2023-01-15T00:13:48;3.20;99.90
40077;DHT22;25777;47.824;18.982;2023-01-15T00:16:20;3.20;99.90
40077;DHT22;25777;47.824;18.982;2023-01-15T00:18:57;3.20;99.90
40077;DHT22;25777;47.824;18.982;2023-01-15T00:21:24;3.20;99.90
40077;DHT22;25777;47.824;18.982;2023-01-15T00:23:50;3.20;99.90
40077;DHT22;25777;47.824;18.982;2023-01-15T00:26:36;3.20;99.90
40077;DHT22;25777;47.824;18.982;2023-01-15T00:29:22;3.20;99.90
40077;DHT22;25777;47.824;18.982;2023-01-15T00:32:04;3.20;99.90
40077;DHT22;25777;47.824;18.982;2023-01-15T00:34:31;3.20;99.90
40077;DHT22;25777;47.824;18.982;2023-01-15T00:36:58;3.10;99.90
40077;DHT22;25777;47.824;18.982;2023-01-15T00:39:24;3.10;99.90
40077;DHT22;25777;47.824;18.982;2023-01-15T00:41:51;3.10;99.90
40077;DHT22;25777;47.824;18.982;2023-01-15T00:44:18;3.10;99.90
40077;DHT22;25777;47.824;18.982;2023-01-15T00:46:44;3.10;99.90
40077;DHT22;25777;47.824;18.982;2023-01-15T00:49:11;3.10;99.90
40077;DHT22;25777;47.824;18.982;2023-01-15T00:51:39;3.10;99.90
40077;DHT22;25777;47.824;18.982;2023-01-15T00:54:07;3.10;99.90
40077;DHT22;25777;47.824;18.982;2023-01-15T00:56:34;3.10;99.90
40077;DHT22;25777;47.824;18.982;2023-01-15T00:59:02;3.00;99.90
40077;DHT22;25777;47.824;18.982;2023-01-15T01:01:30;3.00;99.90
40077;DHT22;25777;47.824;18.982;2023-01-15T01:03:56;3.00;99.90
40077;DHT22;25777;47.824;18.982;2023-01-15T01:06:21;3.10;99.90
40077;DHT22;25777;47.824;18.982;2023-01-15T01:08:47;3.00;99.90
40077;DHT22;25777;47.824;18.982;2023-01-15T01:11:16;3.00;99.90
40077;DHT22;25777;47.824;18.982;2023-01-15T01:13:44;3.00;99.90
40077;DHT22;25777;47.824;18.982;2023-01-15T01:16:32;3.00;99.90
40077;DHT22;25777;47.824;18.982;2023-01-15T01:19:06;3.00;99.90
40077;DHT22;25777;47.824;18.982;2023-01-15T01:21:36;3.00;99.90
40077;DHT22;25777;47.824;18.982;2023-01-15T01:24:02;3.00;99.90
40077;DHT22;25777;47.824;18.982;2023-01-15T01:26:29;3.00;99.90
40077;DHT22;25777;47.824;18.982;2023-01-15T01:28:56;3.00;99.90
40077;DHT22;25777;47.824;18.982;2023-01-15T01:31:30;3.00;99.90
40077;DHT22;25777;47.824;18.982;2023-01-15T01:34:00;3.00;99.90
40077;DHT22;25777;47.824;18.982;2023-01-15T01:36:30;3.00;99.90
40077;DHT22;25777;47.824;18.982;2023-01-15T01:38:56;3.00;99.90
40077;DHT22;25777;47.824;18.982;2023-01-15T01:41:23;3.00;99.90
40077;DHT22;25777;47.824;18.982;2023-01-15T01:44:02;2.90;99.90
40077;DHT22;25777;47.824;18.982;2023-01-15T01:46:34;3.00;99.90
40077;DHT22;25777;47.824;18.982;2023-01-15T01:49:10;2.90;99.90
40077;DHT22;25777;47.824;18.982;2023-01-15T01:51:44;2.90;99.90
40077;DHT22;25777;47.824;18.982;2023-01-15T01:54:13;2.90;99.90
40077;DHT22;25777;47.824;18.982;2023-01-15T01:56:41;2.80;99.90
40077;DHT22;25777;47.824;18.982;2023-01-15T01:59:07;2.90;99.90
40077;DHT22;25777;47.824;18.982;2023-01-15T02:01:34;2.90;99.90
40077;DHT22;25777;47.824;18.982;2023-01-15T02:04:05;2.90;99.90
40077;DHT22;25777;47.824;18.982;2023-01-15T02:06:32;2.80;99.90
40077;DHT22;25777;47.824;18.982;2023-01-15T02:08:58;2.80;99.90
40077;DHT22;25777;47.824;18.982;2023-01-15T02:11:25;2.80;99.90
40077;DHT22;25777;47.824;18.982;2023-01-15T02:14:20;2.90;99.90
40077;DHT22;25777;47.824;18.982;2023-01-15T02:17:14;2.80;99.90
40077;DHT22;25777;47.824;18.982;2023-01-15T02:25:36;2.80;99.90
40077;DHT22;25777;47.824;18.982;2023-01-15T02:28:12;2.80;99.90
40077;DHT22;25777;47.824;18.982;2023-01-15T02:30:44;2.80;99.90
40077;DHT22;25777;47.824;18.982;2023-01-15T02:33:19;2.80;99.90
40077;DHT22;25777;47.824;18.982;2023-01-15T02:35:57;2.80;99.90
40077;DHT22;25777;47.824;18.982;2023-01-15T02:38:35;2.80;99.90
40077;DHT22;25777;47.824;18.982;2023-01-15T02:41:03;2.80;99.90
40077;DHT22;25777;47.824;18.982;2023-01-15T02:43:34;2.70;99.90
40077;DHT22;25777;47.824;18.982;2023-01-15T02:46:02;2.60;99.90
40077;DHT22;25777;47.824;18.982;2023-01-15T02:48:32;2.60;99.90
40077;DHT22;25777;47.824;18.982;2023-01-15T02:51:08;2.60;99.90
40077;DHT22;25777;47.824;18.982;2023-01-15T02:53:37;2.60;99.90
40077;DHT22;25777;47.824;18.982;2023-01-15T02:56:10;2.60;99.90
40077;DHT22;25777;47.824;18.982;2023-01-15T02:58:39;2.60;99.90
40077;DHT22;25777;47.824;18.982;2023-01-15T03:01:14;2.60;99.90
40077;DHT22;25777;47.824;18.982;2023-01-15T03:04:30;2.60;99.90
40077;DHT22;25777;47.824;18.982;2023-01-15T03:06:43;2.60;99.90
40077;DHT22;25777;47.824;18.982;2023-01-15T03:09:11;2.50;99.90
40077;DHT22;25777;47.824;18.982;2023-01-15T03:11:44;2.50;99.90
40077;DHT22;25777;47.824;18.982;2023-01-15T03:14:22;2.60;99.90
40077;DHT22;25777;47.824;18.982;2023-01-15T03:16:54;2.50;99.90
40077;DHT22;25777;47.824;18.982;2023-01-15T03:19:51;2.60;99.90
40077;DHT22;25777;47.824;18.982;2023-01-15T03:22:39;2.60;99.90
40077;DHT22;25777;47.824;18.982;2023-01-15T03:25:16;2.60;99.90
40077;DHT22;25777;47.824;18.982;2023-01-15T03:27:44;2.60;99.90
40077;DHT22;25777;47.824;18.982;2023-01-15T03:30:18;2.60;99.90
40077;DHT22;25777;47.824;18.982;2023-01-15T03:32:45;2.60;99.90
40077;DHT22;25777;47.824;18.982;2023-01-15T03:35:46;2.60;99.90
40077;DHT22;25777;47.824;18.982;2023-01-15T03:38:17;2.60;99.90
40077;DHT22;25777;47.824;18.982;2023-01-15T03:43:51;2.60;99.90
40077;DHT22;25777;47.824;18.982;2023-01-15T03:52:18;2.60;99.90
40077;DHT22;25777;47.824;18.982;2023-01-15T03:55:07;2.60;99.90
40077;DHT22;25777;47.824;18.982;2023-01-15T04:02:49;2.60;99.90
40077;DHT22;25777;47.824;18.982;2023-01-15T04:05:16;2.60;99.90
40077;DHT22;25777;47.824;18.982;2023-01-15T04:07:45;2.60;99.90
40077;DHT22;25777;47.824;18.982;2023-01-15T04:10:11;2.60;99.90
40077;DHT22;25777;47.824;18.982;2023-01-15T04:12:38;2.50;99.90
40077;DHT22;25777;47.824;18.982;2023-01-15T04:15:11;2.60;99.90
40077;DHT22;25777;47.824;18.982;2023-01-15T04:17:38;2.60;99.90
40077;DHT22;25777;47.824;18.982;2023-01-15T04:20:05;2.60;99.90
40077;DHT22;25777;47.824;18.982;2023-01-15T04:22:32;2.60;99.90
40077;DHT22;25777;47.824;18.982;2023-01-15T04:25:01;2.60;99.90
40077;DHT22;25777;47.824;18.982;2023-01-15T04:27:27;2.60;99.90
40077;DHT22;25777;47.824;18.982;2023-01-15T04:29:53;2.60;99.90
40077;DHT22;25777;47.824;18.982;2023-01-15T04:32:21;2.60;99.90
40077;DHT22;25777;47.824;18.982;2023-01-15T04:34:47;2.60;99.90
40077;DHT22;25777;47.824;18.982;2023-01-15T04:37:13;2.60;99.90
40077;DHT22;25777;47.824;18.982;2023-01-15T04:39:42;2.60;99.90
40077;DHT22;25777;47.824;18.982;2023-01-15T04:42:12;2.60;99.90
40077;DHT22;25777;47.824;18.982;2023-01-15T04:44:57;2.60;99.90
40077;DHT22;25777;47.824;18.982;2023-01-15T04:47:23;2.60;99.90
40077;DHT22;25777;47.824;18.982;2023-01-15T04:49:50;2.60;99.90
40077;DHT22;25777;47.824;18.982;2023-01-15T04:52:18;2.60;99.90
40077;DHT22;25777;47.824;18.982;2023-01-15T04:54:44;2.60;99.90
40077;DHT22;25777;47.824;18.982;2023-01-15T04:57:10;2.60;99.90
40077;DHT22;25777;47.824;18.982;2023-01-15T04:59:37;2.70;99.90
40077;DHT22;25777;47.824;18.982;2023-01-15T05:02:04;2.60;99.90
40077;DHT22;25777;47.824;18.982;2023-01-15T05:04:30;2.60;99.90
40077;DHT22;25777;47.824;18.982;2023-01-15T05:06:57;2.60;99.90
40077;DHT22;25777;47.824;18.982;2023-01-15T05:09:23;2.60;99.90
40077;DHT22;25777;47.824;18.982;2023-01-15T05:11:50;2.60;99.90
40077;DHT22;25777;47.824;18.982;2023-01-15T05:14:16;2.60;99.90
40077;DHT22;25777;47.824;18.982;2023-01-15T05:16:42;2.60;99.90
40077;DHT22;25777;47.824;18.982;2023-01-15T05:19:09;2.60;99.90
40077;DHT22;25777;47.824;18.982;2023-01-15T05:21:38;2.60;99.90
40077;DHT22;25777;47.824;18.982;2023-01-15T05:24:05;2.60;99.90
40077;DHT22;25777;47.824;18.982;2023-01-15T05:26:35;2.50;99.90
40077;DHT22;25777;47.824;18.982;2023-01-15T05:29:02;2.50;99.90
40077;DHT22;25777;47.824;18.982;2023-01-15T05:31:30;2.50;99.90
40077;DHT22;25777;47.824;18.982;2023-01-15T05:33:58;2.60;99.90
40077;DHT22;25777;47.824;18.982;2023-01-15T05:36:27;2.60;99.90
40077;DHT22;25777;47.824;18.982;2023-01-15T05:38:54;2.60;99.90
40077;DHT22;25777;47.824;18.982;2023-01-15T05:41:25;2.50;99.90
40077;DHT22;25777;47.824;18.982;2023-01-15T05:44:11;2.50;99.90
40077;DHT22;25777;47.824;18.982;2023-01-15T05:46:39;2.60;99.90
40077;DHT22;25777;47.824;18.982;2023-01-15T05:49:10;2.60;99.90
40077;DHT22;25777;47.824;18.982;2023-01-15T05:51:38;2.60;99.90
40077;DHT22;25777;47.824;18.982;2023-01-15T05:54:09;2.50;99.90
40077;DHT22;25777;47.824;18.982;2023-01-15T05:56:37;2.50;99.90
40077;DHT22;25777;47.824;18.982;2023-01-15T05:59:04;2.50;99.90
40077;DHT22;25777;47.824;18.982;2023-01-15T06:01:31;2.50;99.90
40077;DHT22;25777;47.824;18.982;2023-01-15T06:04:00;2.50;99.90
40077;DHT22;25777;47.824;18.982;2023-01-15T06:06:26;2.50;99.90
40077;DHT22;25777;47.824;18.982;2023-01-15T06:08:53;2.50;99.90
40077;DHT22;25777;47.824;18.982;2023-01-15T06:11:19;2.40;99.90
40077;DHT22;25777;47.824;18.982;2023-01-15T06:13:46;2.40;99.90
40077;DHT22;25777;47.824;18.982;2023-01-15T06:16:12;2.50;99.90
40077;DHT22;25777;47.824;18.982;2023-01-15T06:18:38;2.40;99.90
40077;DHT22;25777;47.824;18.982;2023-01-15T06:21:08;2.50;99.90
40077;DHT22;25777;47.824;18.982;2023-01-15T06:23:35;2.50;99.90
40077;DHT22;25777;47.824;18.982;2023-01-15T06:26:07;2.60;99.90
40077;DHT22;25777;47.824;18.982;2023-01-15T06:28:34;2.60;99.90
40077;DHT22;25777;47.824;18.982;2023-01-15T06:31:06;2.60;99.90
40077;DHT22;25777;47.824;18.982;2023-01-15T06:33:34;2.60;99.90
40077;DHT22;25777;47.824;18.982;2023-01-15T06:36:04;2.60;99.90
40077;DHT22;25777;47.824;18.982;2023-01-15T06:38:31;2.60;99.90
40077;DHT22;25777;47.824;18.982;2023-01-15T06:40:59;2.70;99.90
40077;DHT22;25777;47.824;18.982;2023-01-15T06:43:26;2.70;99.90
40077;DHT22;25777;47.824;18.982;2023-01-15T06:46:11;2.60;99.90
40077;DHT22;25777;47.824;18.982;2023-01-15T06:48:55;2.70;99.90
40077;DHT22;25777;47.824;18.982;2023-01-15T06:51:23;2.60;99.90
40077;DHT22;25777;47.824;18.982;2023-01-15T06:53:50;2.70;99.90
40077;DHT22;25777;47.824;18.982;2023-01-15T06:56:16;2.70;99.90
40077;DHT22;25777;47.824;18.982;2023-01-15T06:58:43;2.70;99.90
40077;DHT22;25777;47.824;18.982;2023-01-15T07:01:12;2.70;99.90
40077;DHT22;25777;47.824;18.982;2023-01-15T07:03:40;2.70;99.90
40077;DHT22;25777;47.824;18.982;2023-01-15T07:06:07;2.80;99.90
40077;DHT22;25777;47.824;18.982;2023-01-15T07:08:34;2.70;99.90
40077;DHT22;25777;47.824;18.982;2023-01-15T07:11:06;2.80;99.90
40077;DHT22;25777;47.824;18.982;2023-01-15T07:13:33;2.80;99.90
40077;DHT22;25777;47.824;18.982;2023-01-15T07:16:01;2.80;99.90
40077;DHT22;25777;47.824;18.982;2023-01-15T07:18:29;2.80;99.90
40077;DHT22;25777;47.824;18.982;2023-01-15T07:20:57;2.80;99.90
40077;DHT22;25777;47.824;18.982;2023-01-15T07:23:24;2.80;99.90
40077;DHT22;25777;47.824;18.982;2023-01-15T07:25:53;2.80;99.90
40077;DHT22;25777;47.824;18.982;2023-01-15T07:28:20;2.90;99.90
40077;DHT22;25777;47.824;18.982;2023-01-15T07:30:47;2.90;99.90
40077;DHT22;25777;47.824;18.982;2023-01-15T07:33:13;2.90;99.90
40077;DHT22;25777;47.824;18.982;2023-01-15T07:35:39;2.90;99.90
40077;DHT22;25777;47.824;18.982;2023-01-15T07:38:05;2.90;99.90
40077;DHT22;25777;47.824;18.982;2023-01-15T07:40:32;2.90;99.90
40077;DHT22;25777;47.824;18.982;2023-01-15T07:42:59;3.00;99.90
40077;DHT22;25777;47.824;18.982;2023-01-15T07:45:45;3.00;99.90
40077;DHT22;25777;47.824;18.982;2023-01-15T07:48:30;3.00;99.90
40077;DHT22;25777;47.824;18.982;2023-01-15T07:51:15;3.10;99.90
40077;DHT22;25777;47.824;18.982;2023-01-15T07:53:43;3.10;99.90
40077;DHT22;25777;47.824;18.982;2023-01-15T07:56:09;3.20;99.90
40077;DHT22;25777;47.824;18.982;2023-01-15T07:58:35;3.20;99.90
40077;DHT22;25777;47.824;18.982;2023-01-15T08:01:02;3.20;99.90
40077;DHT22;25777;47.824;18.982;2023-01-15T08:03:28;3.20;99.90
40077;DHT22;25777;47.824;18.982;2023-01-15T08:05:54;3.30;99.90
40077;DHT22;25777;47.824;18.982;2023-01-15T08:08:21;3.30;99.90
40077;DHT22;25777;47.824;18.982;2023-01-15T08:10:47;3.30;99.90
40077;DHT22;25777;47.824;18.982;2023-01-15T08:13:33;3.30;99.90
40077;DHT22;25777;47.824;18.982;2023-01-15T08:16:17;3.30;99.90
40077;DHT22;25777;47.824;18.982;2023-01-15T08:18:43;3.30;99.90
40077;DHT22;25777;47.824;18.982;2023-01-15T08:21:14;3.40;99.90
40077;DHT22;25777;47.824;18.982;2023-01-15T08:23:41;3.40;99.90
40077;DHT22;25777;47.824;18.982;2023-01-15T08:26:08;3.40;99.90
40077;DHT22;25777;47.824;18.982;2023-01-15T08:28:36;3.40;99.90
40077;DHT22;25777;47.824;18.982;2023-01-15T08:31:05;3.40;99.90
40077;DHT22;25777;47.824;18.982;2023-01-15T08:33:35;3.50;99.90
40077;DHT22;25777;47.824;18.982;2023-01-15T08:36:01;3.50;99.90
40077;DHT22;25777;47.824;18.982;2023-01-15T08:38:27;3.60;99.90
40077;DHT22;25777;47.824;18.982;2023-01-15T08:40:56;3.60;99.90
40077;DHT22;25777;47.824;18.982;2023-01-15T08:43:26;3.60;99.90
40077;DHT22;25777;47.824;18.982;2023-01-15T08:45:58;3.60;99.90
40077;DHT22;25777;47.824;18.982;2023-01-15T08:48:24;3.70;99.90
40077;DHT22;25777;47.824;18.982;2023-01-15T08:50:50;3.70;99.90
40077;DHT22;25777;47.824;18.982;2023-01-15T08:53:17;3.80;99.90
40077;DHT22;25777;47.824;18.982;2023-01-15T08:55:47;3.90;99.90
40077;DHT22;25777;47.824;18.982;2023-01-15T08:58:14;3.90;99.90
40077;DHT22;25777;47.824;18.982;2023-01-15T09:00:40;3.90;99.90
40077;DHT22;25777;47.824;18.982;2023-01-15T09:03:07;4.00;99.90
40077;DHT22;25777;47.824;18.982;2023-01-15T09:05:33;4.00;99.90
40077;DHT22;25777;47.824;18.982;2023-01-15T09:08:01;4.00;99.90
40077;DHT22;25777;47.824;18.982;2023-01-15T09:10:26;4.00;99.90
40077;DHT22;25777;47.824;18.982;2023-01-15T09:12:52;4.00;99.90
40077;DHT22;25777;47.824;18.982;2023-01-15T09:15:19;4.00;99.90
40077;DHT22;25777;47.824;18.982;2023-01-15T09:17:46;4.10;99.90
40077;DHT22;25777;47.824;18.982;2023-01-15T09:20:12;4.10;99.90
40077;DHT22;25777;47.824;18.982;2023-01-15T09:22:39;4.10;99.90
40077;DHT22;25777;47.824;18.982;2023-01-15T09:25:05;4.20;99.90
40077;DHT22;25777;47.824;18.982;2023-01-15T09:27:32;4.20;99.90
40077;DHT22;25777;47.824;18.982;2023-01-15T09:29:59;4.30;99.90
40077;DHT22;25777;47.824;18.982;2023-01-15T09:32:25;4.40;99.90
40077;DHT22;25777;47.824;18.982;2023-01-15T09:34:51;4.40;99.90
40077;DHT22;25777;47.824;18.982;2023-01-15T09:37:17;4.40;99.90
40077;DHT22;25777;47.824;18.982;2023-01-15T09:39:43;4.40;99.90
40077;DHT22;25777;47.824;18.982;2023-01-15T09:42:31;4.40;99.90
40077;DHT22;25777;47.824;18.982;2023-01-15T09:45:26;4.40;99.90
40077;DHT22;25777;47.824;18.982;2023-01-15T09:48:22;4.40;99.90
40077;DHT22;25777;47.824;18.982;2023-01-15T09:56:03;4.60;99.90
40077;DHT22;25777;47.824;18.982;2023-01-15T09:58:36;4.50;99.90
40077;DHT22;25777;47.824;18.982;2023-01-15T10:01:04;4.60;99.90
40077;DHT22;25777;47.824;18.982;2023-01-15T10:03:44;4.60;99.90
40077;DHT22;25777;47.824;18.982;2023-01-15T10:06:23;4.80;99.90
40077;DHT22;25777;47.824;18.982;2023-01-15T10:09:13;4.80;99.90
40077;DHT22;25777;47.824;18.982;2023-01-15T10:11:53;4.90;99.90
40077;DHT22;25777;47.824;18.982;2023-01-15T10:15:45;5.00;99.90
40077;DHT22;25777;47.824;18.982;2023-01-15T10:17:59;5.00;99.90
40077;DHT22;25777;47.824;18.982;2023-01-15T10:25:47;5.20;99.90
40077;DHT22;25777;47.824;18.982;2023-01-15T10:28:28;5.20;99.90
40077;DHT22;25777;47.824;18.982;2023-01-15T10:31:00;5.20;99.90
40077;DHT22;25777;47.824;18.982;2023-01-15T10:39:01;5.40;99.90
40077;DHT22;25777;47.824;18.982;2023-01-15T10:44:19;5.40;99.90
40077;DHT22;25777;47.824;18.982;2023-01-15T10:46:55;5.50;99.90
40077;DHT22;25777;47.824;18.982;2023-01-15T10:49:27;5.50;99.90
40077;DHT22;25777;47.824;18.982;2023-01-15T10:52:03;5.60;99.90
40077;DHT22;25777;47.824;18.982;2023-01-15T10:54:46;5.70;99.90
40077;DHT22;25777;47.824;18.982;2023-01-15T10:57:34;5.70;99.90
40077;DHT22;25777;47.824;18.982;2023-01-15T11:00:01;5.90;99.90
40077;DHT22;25777;47.824;18.982;2023-01-15T11:02:39;5.90;99.90
40077;DHT22;25777;47.824;18.982;2023-01-15T11:05:07;5.90;99.90
40077;DHT22;25777;47.824;18.982;2023-01-15T11:07:45;5.90;99.90
40077;DHT22;25777;47.824;18.982;2023-01-15T11:10:17;6.00;99.90
40077;DHT22;25777;47.824;18.982;2023-01-15T11:12:51;6.10;99.90
40077;DHT22;25777;47.824;18.982;2023-01-15T11:15:36;6.10;99.90
40077;DHT22;25777;47.824;18.982;2023-01-15T11:18:25;6.20;99.90
40077;DHT22;25777;47.824;18.982;2023-01-15T11:21:14;6.10;99.90
40077;DHT22;25777;47.824;18.982;2023-01-15T11:23:40;6.20;99.90
40077;DHT22;25777;47.824;18.982;2023-01-15T11:26:06;6.10;99.90
40077;DHT22;25777;47.824;18.982;2023-01-15T11:28:38;6.30;99.90
40077;DHT22;25777;47.824;18.982;2023-01-15T11:31:06;6.30;99.90
40077;DHT22;25777;47.824;18.982;2023-01-15T11:33:33;6.40;99.90
40077;DHT22;25777;47.824;18.982;2023-01-15T11:36:02;6.40;99.90
40077;DHT22;25777;47.824;18.982;2023-01-15T11:38:46;6.40;99.90
40077;DHT22;25777;47.824;18.982;2023-01-15T11:44:11;6.50;99.90
40077;DHT22;25777;47.824;18.982;2023-01-15T11:46:57;6.60;99.90
40077;DHT22;25777;47.824;18.982;2023-01-15T11:49:54;6.60;99.90
40077;DHT22;25777;47.824;18.982;2023-01-15T11:52:51;6.50;99.90
40077;DHT22;25777;47.824;18.982;2023-01-15T11:55:22;6.50;99.90
40077;DHT22;25777;47.824;18.982;2023-01-15T11:57:50;6.60;99.90
40077;DHT22;25777;47.824;18.982;2023-01-15T12:00:37;6.50;99.90
40077;DHT22;25777;47.824;18.982;2023-01-15T12:03:20;6.50;99.90
40077;DHT22;25777;47.824;18.982;2023-01-15T12:05:57;6.60;99.90
40077;DHT22;25777;47.824;18.982;2023-01-15T12:22:08;6.80;99.90
40077;DHT22;25777;47.824;18.982;2023-01-15T12:24:48;6.80;99.90
40077;DHT22;25777;47.824;18.982;2023-01-15T12:27:48;6.80;99.90
40077;DHT22;25777;47.824;18.982;2023-01-15T12:30:38;6.80;99.90
40077;DHT22;25777;47.824;18.982;2023-01-15T12:36:11;6.70;99.90
40077;DHT22;25777;47.824;18.982;2023-01-15T12:38:49;6.70;99.90
40077;DHT22;25777;47.824;18.982;2023-01-15T12:41:35;6.60;99.90
40077;DHT22;25777;47.824;18.982;2023-01-15T12:53:02;6.50;99.90
40077;DHT22;25777;47.824;18.982;2023-01-15T12:55:32;6.50;99.90
40077;DHT22;25777;47.824;18.982;2023-01-15T12:58:04;6.50;99.90
40077;DHT22;25777;47.824;18.982;2023-01-15T13:00:42;6.50;99.90
40077;DHT22;25777;47.824;18.982;2023-01-15T13:05:58;6.50;99.90
40077;DHT22;25777;47.824;18.982;2023-01-15T13:08:59;6.50;99.90
40077;DHT22;25777;47.824;18.982;2023-01-15T13:11:27;6.40;99.90
40077;DHT22;25777;47.824;18.982;2023-01-15T13:13:53;6.50;99.90
40077;DHT22;25777;47.824;18.982;2023-01-15T13:19:13;6.40;99.90
40077;DHT22;25777;47.824;18.982;2023-01-15T13:21:44;6.50;99.90
40077;DHT22;25777;47.824;18.982;2023-01-15T13:24:44;6.50;99.90
40077;DHT22;25777;47.824;18.982;2023-01-15T13:32:51;6.40;99.90
40077;DHT22;25777;47.824;18.982;2023-01-15T13:37:56;6.50;99.90
40077;DHT22;25777;47.824;18.982;2023-01-15T13:40:30;6.50;99.90
40077;DHT22;25777;47.824;18.982;2023-01-15T13:43:06;6.40;99.90
40077;DHT22;25777;47.824;18.982;2023-01-15T13:45:37;6.50;99.90
40077;DHT22;25777;47.824;18.982;2023-01-15T13:50:58;6.40;99.90
40077;DHT22;25777;47.824;18.982;2023-01-15T13:53:36;6.40;99.90
40077;DHT22;25777;47.824;18.982;2023-01-15T13:56:08;6.40;99.90
40077;DHT22;25777;47.824;18.982;2023-01-15T13:58:51;6.30;99.90
40077;DHT22;25777;47.824;18.982;2023-01-15T14:06:48;6.20;99.90
40077;DHT22;25777;47.824;18.982;2023-01-15T14:34:28;6.00;99.90
40077;DHT22;25777;47.824;18.982;2023-01-15T14:39:48;5.90;99.90
40077;DHT22;25777;47.824;18.982;2023-01-15T14:42:26;5.90;99.90
40077;DHT22;25777;47.824;18.982;2023-01-15T14:47:47;5.90;99.90
40077;DHT22;25777;47.824;18.982;2023-01-15T14:52:54;5.90;99.90
40077;DHT22;25777;47.824;18.982;2023-01-15T14:55:21;5.90;99.90
40077;DHT22;25777;47.824;18.982;2023-01-15T15:00:59;5.80;99.90
40077;DHT22;25777;47.824;18.982;2023-01-15T15:03:34;5.90;99.90
40077;DHT22;25777;47.824;18.982;2023-01-15T15:06:03;5.80;99.90
40077;DHT22;25777;47.824;18.982;2023-01-15T15:08:32;5.80;99.90
40077;DHT22;25777;47.824;18.982;2023-01-15T15:11:01;5.80;99.90
40077;DHT22;25777;47.824;18.982;2023-01-15T15:13:49;5.80;99.90
40077;DHT22;25777;47.824;18.982;2023-01-15T15:16:25;5.80;99.90
40077;DHT22;25777;47.824;18.982;2023-01-15T15:19:11;5.80;99.90
40077;DHT22;25777;47.824;18.982;2023-01-15T15:21:41;5.80;99.90
40077;DHT22;25777;47.824;18.982;2023-01-15T15:24:25;5.80;99.90
40077;DHT22;25777;47.824;18.982;2023-01-15T15:26:52;5.80;99.90
40077;DHT22;25777;47.824;18.982;2023-01-15T15:29:19;5.80;99.90
40077;DHT22;25777;47.824;18.982;2023-01-15T15:31:55;5.80;99.90
40077;DHT22;25777;47.824;18.982;2023-01-15T15:34:43;5.80;99.90
40077;DHT22;25777;47.824;18.982;2023-01-15T15:37:22;5.70;99.90
40077;DHT22;25777;47.824;18.982;2023-01-15T15:39:55;5.70;99.90
40077;DHT22;25777;47.824;18.982;2023-01-15T15:42:31;5.70;99.90
40077;DHT22;25777;47.824;18.982;2023-01-15T15:45:23;5.70;99.90
40077;DHT22;25777;47.824;18.982;2023-01-15T15:48:12;5.70;99.90
40077;DHT22;25777;47.824;18.982;2023-01-15T15:50:57;5.70;99.90
40077;DHT22;25777;47.824;18.982;2023-01-15T15:53:25;5.60;99.90
40077;DHT22;25777;47.824;18.982;2023-01-15T15:55:52;5.70;99.90
40077;DHT22;25777;47.824;18.982;2023-01-15T15:58:31;5.70;99.90
40077;DHT22;25777;47.824;18.982;2023-01-15T16:01:00;5.70;99.90
40077;DHT22;25777;47.824;18.982;2023-01-15T16:03:29;5.70;99.90
40077;DHT22;25777;47.824;18.982;2023-01-15T16:06:01;5.60;99.90
40077;DHT22;25777;47.824;18.982;2023-01-15T16:08:30;5.60;99.90
40077;DHT22;25777;47.824;18.982;2023-01-15T16:11:03;5.60;99.90
40077;DHT22;25777;47.824;18.982;2023-01-15T16:13:39;5.60;99.90
40077;DHT22;25777;47.824;18.982;2023-01-15T16:16:07;5.60;99.90
40077;DHT22;25777;47.824;18.982;2023-01-15T16:18:38;5.50;99.90
40077;DHT22;25777;47.824;18.982;2023-01-15T16:21:15;5.50;99.90
40077;DHT22;25777;47.824;18.982;2023-01-15T16:23:42;5.50;99.90
40077;DHT22;25777;47.824;18.982;2023-01-15T16:26:21;5.40;99.90
40077;DHT22;25777;47.824;18.982;2023-01-15T16:28:57;5.40;99.90
40077;DHT22;25777;47.824;18.982;2023-01-15T16:31:25;5.40;99.90
40077;DHT22;25777;47.824;18.982;2023-01-15T16:33:55;5.40;99.90
40077;DHT22;25777;47.824;18.982;2023-01-15T16:36:23;5.40;99.90
40077;DHT22;25777;47.824;18.982;2023-01-15T16:38:51;5.40;99.90
40077;DHT22;25777;47.824;18.982;2023-01-15T16:41:27;5.40;99.90
40077;DHT22;25777;47.824;18.982;2023-01-15T16:44:01;5.40;99.90
40077;DHT22;25777;47.824;18.982;2023-01-15T16:46:48;5.40;99.90
40077;DHT22;25777;47.824;18.982;2023-01-15T16:49:25;5.40;99.90
40077;DHT22;25777;47.824;18.982;2023-01-15T16:51:58;5.30;99.90
40077;DHT22;25777;47.824;18.982;2023-01-15T16:56:58;5.30;99.90
40077;DHT22;25777;47.824;18.982;2023-01-15T17:04:34;5.30;99.90
40077;DHT22;25777;47.824;18.982;2023-01-15T17:07:19;5.20;99.90
40077;DHT22;25777;47.824;18.982;2023-01-15T17:09:50;5.30;99.90
40077;DHT22;25777;47.824;18.982;2023-01-15T17:12:34;5.30;99.90
40077;DHT22;25777;47.824;18.982;2023-01-15T17:17:42;5.30;99.90
40077;DHT22;25777;47.824;18.982;2023-01-15T17:20:09;5.30;99.90
40077;DHT22;25777;47.824;18.982;2023-01-15T17:22:36;5.30;99.90
40077;DHT22;25777;47.824;18.982;2023-01-15T17:25:21;5.30;99.90
40077;DHT22;25777;47.824;18.982;2023-01-15T17:27:47;5.20;99.90
40077;DHT22;25777;47.824;18.982;2023-01-15T17:30:13;5.30;99.90
40077;DHT22;25777;47.824;18.982;2023-01-15T17:32:40;5.20;99.90
40077;DHT22;25777;47.824;18.982;2023-01-15T17:37:41;5.30;99.90
40077;DHT22;25777;47.824;18.982;2023-01-15T17:40:07;5.30;99.90
40077;DHT22;25777;47.824;18.982;2023-01-15T17:42:33;5.30;99.90
40077;DHT22;25777;47.824;18.982;2023-01-15T17:44:59;5.20;99.90
40077;DHT22;25777;47.824;18.982;2023-01-15T17:47:26;5.20;99.90
40077;DHT22;25777;47.824;18.982;2023-01-15T17:49:52;5.20;99.90
40077;DHT22;25777;47.824;18.982;2023-01-15T17:52:19;5.20;99.90
40077;DHT22;25777;47.824;18.982;2023-01-15T17:54:45;5.10;99.90
40077;DHT22;25777;47.824;18.982;2023-01-15T17:57:29;5.10;99.90
40077;DHT22;25777;47.824;18.982;2023-01-15T18:00:14;5.10;99.90
40077;DHT22;25777;47.824;18.982;2023-01-15T18:02:59;5.20;99.90
40077;DHT22;25777;47.824;18.982;2023-01-15T18:05:46;5.10;99.90
40077;DHT22;25777;47.824;18.982;2023-01-15T18:08:14;5.20;99.90
40077;DHT22;25777;47.824;18.982;2023-01-15T18:10:44;5.20;99.90
40077;DHT22;25777;47.824;18.982;2023-01-15T18:13:11;5.20;99.90
40077;DHT22;25777;47.824;18.982;2023-01-15T18:15:39;5.20;99.90
40077;DHT22;25777;47.824;18.982;2023-01-15T18:18:06;5.20;99.90
40077;DHT22;25777;47.824;18.982;2023-01-15T18:20:33;5.20;99.90